Time;durP1;ratioP1;P1;durP2;ratioP2;P2;SDS_P1;SDS_P2;PMS_P1;PMS_P2;Temp;Humidity;BMP_temperature;BMP_pressure;BME280_temperature;BME280_humidity;BME280_pressure;Samples;Min_cycle;Max_cycle;Signal;HPM_P1;HPM_P2
2022/09/17 00:02:09;;;;;;;0.00;0.00;;;;;;;;;;5129664;27;20085;-67
2022/09/17 00:04:34;;;;;;;0.00;0.00;;;;;;;;;;5126014;27;20034;-68
2022/09/17 00:07:00;;;;;;;0.00;0.00;;;;;;;;;;5111181;27;21288;-68
2022/09/17 00:09:25;;;;;;;0.00;0.00;;;;;;;;;;5108720;28;20023;-68
2022/09/17 00:11:50;;;;;;;0.00;0.00;;;;;;;;;;5108638;28;20015;-68
2022/09/17 00:14:16;;;;;;;0.00;0.00;;;;;;;;;;5124150;28;20019;-68
2022/09/17 00:16:43;;;;;;;0.00;0.00;;;;;;;;;;5128671;27;20417;-68
2022/09/17 00:19:11;;;;;;;0.00;0.00;;;;;;;;;;5129293;27;20507;-67
2022/09/17 00:21:37;;;;;;;0.00;0.00;;;;;;;;;;5128927;27;20027;-67
2022/09/17 00:24:03;;;;;;;0.00;0.00;;;;;;;;;;5132244;27;20073;-67
2022/09/17 00:26:29;;;;;;;0.00;0.00;;;;;;;;;;5132960;27;20026;-67
2022/09/17 00:28:56;;;;;;;0.00;0.00;;;;;;;;;;5133278;27;20027;-67
2022/09/17 00:31:21;;;;;;;0.00;0.00;;;;;;;;;;5133348;27;20084;-68
2022/09/17 00:33:47;;;;;;;0.00;0.00;;;;;;;;;;5121772;27;20069;-67
2022/09/17 00:36:12;;;;;;;0.00;0.00;;;;;;;;;;5114882;27;20019;-67
2022/09/17 00:38:38;;;;;;;0.10;0.05;;;;;;;;;;5112330;28;20545;-68
2022/09/17 00:41:04;;;;;;;0.00;0.00;;;;;;;;;;5112683;28;20102;-67
2022/09/17 00:43:32;;;;;;;0.00;0.00;;;;;;;;;;5119145;27;20027;-66
2022/09/17 00:45:58;;;;;;;0.00;0.00;;;;;;;;;;5112818;28;20039;-66
2022/09/17 00:48:23;;;;;;;0.00;0.00;;;;;;;;;;5114586;27;20019;-66
2022/09/17 00:50:48;;;;;;;0.00;0.00;;;;;;;;;;5131836;27;20471;-66
2022/09/17 00:53:15;;;;;;;0.00;0.00;;;;;;;;;;5132655;27;20523;-66
2022/09/17 00:55:47;;;;;;;0.00;0.00;;;;;;;;;;5132323;27;20026;-68
2022/09/17 00:58:13;;;;;;;0.00;0.00;;;;;;;;;;5112187;28;20050;-67
2022/09/17 01:00:39;;;;;;;0.00;0.00;;;;;;;;;;5111746;28;20038;-68
2022/09/17 01:03:04;;;;;;;0.00;0.00;;;;;;;;;;5114689;27;20095;-68
2022/09/17 01:05:32;;;;;;;0.00;0.00;;;;;;;;;;5119151;27;20036;-68
2022/09/17 01:08:04;;;;;;;0.00;0.00;;;;;;;;;;5126166;27;20031;-69
2022/09/17 01:10:29;;;;;;;0.00;0.00;;;;;;;;;;5111139;27;20019;-70
2022/09/17 01:13:01;;;;;;;0.00;0.00;;;;;;;;;;5114222;27;20065;-66
2022/09/17 01:15:26;;;;;;;0.00;0.00;;;;;;;;;;5111906;28;20016;-66
2022/09/17 01:18:07;;;;;;;0.00;0.00;;;;;;;;;;5112316;27;20015;-66
2022/09/17 01:20:51;;;;;;;0.00;0.00;;;;;;;;;;5111303;28;20020;-66
2022/09/17 01:23:19;;;;;;;0.28;0.28;;;;;;;;;;5111832;27;20028;-66
2022/09/17 01:25:59;;;;;;;0.00;0.00;;;;;;;;;;5119419;27;20035;-66
2022/09/17 01:28:36;;;;;;;0.00;0.00;;;;;;;;;;5111899;27;20110;-67
2022/09/17 01:31:04;;;;;;;0.00;0.00;;;;;;;;;;5125297;27;20011;-65
2022/09/17 01:33:47;;;;;;;0.00;0.00;;;;;;;;;;5111373;27;20024;-65
2022/09/17 01:36:30;;;;;;;0.00;0.00;;;;;;;;;;5112447;27;20570;-65
2022/09/17 01:39:17;;;;;;;0.00;0.00;;;;;;;;;;5111729;28;20024;-66
2022/09/17 01:41:45;;;;;;;0.00;0.00;;;;;;;;;;5111093;28;20034;-64
2022/09/17 01:44:29;;;;;;;0.00;0.00;;;;;;;;;;5122341;27;20023;-64
2022/09/17 01:47:02;;;;;;;0.00;0.00;;;;;;;;;;5111357;28;20118;-65
2022/09/17 01:49:28;;;;;;;0.00;0.00;;;;;;;;;;5111283;28;20061;-65
2022/09/17 01:51:54;;;;;;;0.00;0.00;;;;;;;;;;5110780;27;20553;-64
2022/09/17 01:54:24;;;;;;;0.00;0.00;;;;;;;;;;5111336;28;20107;-69
2022/09/17 01:56:55;;;;;;;0.00;0.00;;;;;;;;;;5116948;27;20507;-68
2022/09/17 01:59:33;;;;;;;0.00;0.00;;;;;;;;;;5122499;27;20403;-67
2022/09/17 02:02:13;;;;;;;0.00;0.00;;;;;;;;;;5120695;27;20045;-70
2022/09/17 02:04:52;;;;;;;1.85;0.95;;;;;;;;;;5112363;27;20476;-69
2022/09/17 02:07:21;;;;;;;0.00;0.00;;;;;;;;;;5125010;27;20047;-68
2022/09/17 02:09:54;;;;;;;0.00;0.00;;;;;;;;;;5110524;28;20273;-67
2022/09/17 02:12:23;;;;;;;0.00;0.00;;;;;;;;;;5111217;28;20084;-66
2022/09/17 02:14:50;;;;;;;0.03;0.03;;;;;;;;;;5124624;27;20547;-66
2022/09/17 02:17:42;;;;;;;0.00;0.00;;;;;;;;;;5131572;27;20030;-66
2022/09/17 02:20:08;;;;;;;0.00;0.00;;;;;;;;;;5112801;27;20046;-68
2022/09/17 02:22:34;;;;;;;0.00;0.00;;;;;;;;;;5110487;27;20019;-68
2022/09/17 02:24:59;;;;;;;0.00;0.00;;;;;;;;;;5112528;27;20103;-68
2022/09/17 02:27:24;;;;;;;0.00;0.00;;;;;;;;;;5113373;27;20019;-68
2022/09/17 02:29:50;;;;;;;0.00;0.00;;;;;;;;;;5117057;27;20334;-68
2022/09/17 02:32:15;;;;;;;0.00;0.00;;;;;;;;;;5111963;27;20027;-65
2022/09/17 02:34:40;;;;;;;0.00;0.00;;;;;;;;;;5113782;27;20401;-65
2022/09/17 02:37:06;;;;;;;0.00;0.00;;;;;;;;;;5121683;27;20042;-66
2022/09/17 02:39:32;;;;;;;0.00;0.00;;;;;;;;;;5109088;27;20024;-66
2022/09/17 02:42:03;;;;;;;0.00;0.00;;;;;;;;;;5110160;28;20027;-68
2022/09/17 02:44:40;;;;;;;0.00;0.00;;;;;;;;;;5119513;27;20019;-68
2022/09/17 02:47:25;;;;;;;0.00;0.00;;;;;;;;;;5117138;27;20027;-68
2022/09/17 02:50:09;;;;;;;0.85;0.22;;;;;;;;;;5108959;28;20042;-69
2022/09/17 02:52:37;;;;;;;0.00;0.00;;;;;;;;;;5109709;28;20295;-68
2022/09/17 02:55:11;;;;;;;0.00;0.00;;;;;;;;;;5112546;27;20012;-69
2022/09/17 02:57:40;;;;;;;0.00;0.00;;;;;;;;;;5111119;27;20043;-70
2022/09/17 03:00:09;;;;;;;0.00;0.00;;;;;;;;;;5118400;27;20051;-66
2022/09/17 03:02:37;;;;;;;0.00;0.00;;;;;;;;;;5121963;27;20026;-65
2022/09/17 03:05:04;;;;;;;0.70;0.68;;;;;;;;;;5123665;27;20023;-64
2022/09/17 03:07:31;;;;;;;0.00;0.00;;;;;;;;;;5122928;27;20092;-65
2022/09/17 03:09:56;;;;;;;0.00;0.00;;;;;;;;;;5125115;27;20019;-65
2022/09/17 03:12:23;;;;;;;0.00;0.00;;;;;;;;;;5126356;27;20026;-65
2022/09/17 03:14:48;;;;;;;0.00;0.00;;;;;;;;;;5114969;27;20011;-66
2022/09/17 03:17:13;;;;;;;0.00;0.00;;;;;;;;;;5109521;28;20033;-67
2022/09/17 03:19:39;;;;;;;0.00;0.00;;;;;;;;;;5108770;27;20027;-68
2022/09/17 03:22:04;;;;;;;0.00;0.00;;;;;;;;;;5109729;28;20058;-67
2022/09/17 03:24:30;;;;;;;0.00;0.00;;;;;;;;;;5109648;28;20027;-67
2022/09/17 03:26:55;;;;;;;0.00;0.00;;;;;;;;;;5118824;27;20028;-67
2022/09/17 03:29:20;;;;;;;0.00;0.00;;;;;;;;;;5110514;27;20023;-67
2022/09/17 03:31:45;;;;;;;0.00;0.00;;;;;;;;;;5109042;28;20372;-68
2022/09/17 03:34:10;;;;;;;0.00;0.00;;;;;;;;;;5109287;28;20022;-67
2022/09/17 03:36:36;;;;;;;0.00;0.00;;;;;;;;;;5108914;28;20027;-68
2022/09/17 03:39:01;;;;;;;0.00;0.00;;;;;;;;;;5109120;28;20031;-68
2022/09/17 03:41:26;;;;;;;0.00;0.00;;;;;;;;;;5112060;27;20027;-68
2022/09/17 03:43:52;;;;;;;0.00;0.00;;;;;;;;;;5108731;28;20031;-67
2022/09/17 03:46:17;;;;;;;0.00;0.00;;;;;;;;;;5128626;27;20078;-68
2022/09/17 03:48:42;;;;;;;0.00;0.00;;;;;;;;;;5129010;27;20023;-67
2022/09/17 03:51:08;;;;;;;0.00;0.00;;;;;;;;;;5129319;27;20193;-67
2022/09/17 03:53:33;;;;;;;0.00;0.00;;;;;;;;;;5121963;27;20449;-66
2022/09/17 03:55:58;;;;;;;0.00;0.00;;;;;;;;;;5111049;27;20027;-66
2022/09/17 03:58:24;;;;;;;0.00;0.00;;;;;;;;;;5110881;28;20043;-67
2022/09/17 04:00:52;;;;;;;0.00;0.00;;;;;;;;;;5107239;28;20061;-67
2022/09/17 04:03:17;;;;;;;0.00;0.00;;;;;;;;;;5109016;28;20028;-67
2022/09/17 04:05:42;;;;;;;0.00;0.00;;;;;;;;;;5108299;28;20034;-67
2022/09/17 04:08:08;;;;;;;0.32;0.32;;;;;;;;;;5107490;28;20102;-67
2022/09/17 04:10:33;;;;;;;0.00;0.00;;;;;;;;;;5108974;28;20022;-67
2022/09/17 04:12:58;;;;;;;0.10;0.10;;;;;;;;;;5108475;28;20084;-67
2022/09/17 04:15:23;;;;;;;0.00;0.00;;;;;;;;;;5118806;28;20038;-67
2022/09/17 04:17:49;;;;;;;0.00;0.00;;;;;;;;;;5128965;27;20026;-67
2022/09/17 04:20:14;;;;;;;0.00;0.00;;;;;;;;;;5128919;27;20031;-67
2022/09/17 04:22:39;;;;;;;0.00;0.00;;;;;;;;;;5128803;27;20421;-67
2022/09/17 04:25:04;;;;;;;0.20;0.20;;;;;;;;;;5113994;28;20095;-65
2022/09/17 04:27:30;;;;;;;0.00;0.00;;;;;;;;;;5111216;27;20115;-65
2022/09/17 04:29:55;;;;;;;0.00;0.00;;;;;;;;;;5109366;28;20036;-67
2022/09/17 04:32:20;;;;;;;0.00;0.00;;;;;;;;;;5106886;28;20418;-65
2022/09/17 04:34:45;;;;;;;0.00;0.00;;;;;;;;;;5107642;28;20461;-64
2022/09/17 04:37:10;;;;;;;0.00;0.00;;;;;;;;;;5108173;28;20043;-65
2022/09/17 04:39:39;;;;;;;0.00;0.00;;;;;;;;;;5108395;28;20027;-65
2022/09/17 04:42:04;;;;;;;0.00;0.00;;;;;;;;;;5108258;28;20019;-65
2022/09/17 04:44:29;;;;;;;0.00;0.00;;;;;;;;;;5110062;28;20384;-66
2022/09/17 04:46:54;;;;;;;0.22;0.22;;;;;;;;;;5127108;27;20027;-66
2022/09/17 04:49:20;;;;;;;0.10;0.10;;;;;;;;;;5107341;28;20456;-66
2022/09/17 04:51:45;;;;;;;0.00;0.00;;;;;;;;;;5107740;28;20024;-67
2022/09/17 04:54:11;;;;;;;0.00;0.00;;;;;;;;;;5110441;28;20019;-67
2022/09/17 04:56:36;;;;;;;0.00;0.00;;;;;;;;;;5123568;28;20095;-67
2022/09/17 04:59:01;;;;;;;0.00;0.00;;;;;;;;;;5125330;28;20055;-65
2022/09/17 05:01:26;;;;;;;0.00;0.00;;;;;;;;;;5117141;27;20034;-66
2022/09/17 05:03:54;;;;;;;0.00;0.00;;;;;;;;;;5107668;28;20019;-66
2022/09/17 05:06:20;;;;;;;0.00;0.00;;;;;;;;;;5107775;28;20016;-66
2022/09/17 05:08:45;;;;;;;0.00;0.00;;;;;;;;;;5109184;28;20132;-65
2022/09/17 05:11:10;;;;;;;0.00;0.00;;;;;;;;;;5121719;27;20102;-65
2022/09/17 05:13:35;;;;;;;0.00;0.00;;;;;;;;;;5131953;27;20472;-64
2022/09/17 05:16:01;;;;;;;0.17;0.17;;;;;;;;;;5116781;27;20031;-64
2022/09/17 05:18:26;;;;;;;0.00;0.00;;;;;;;;;;5111269;28;20093;-66
2022/09/17 05:20:51;;;;;;;0.00;0.00;;;;;;;;;;5110943;28;20122;-68
2022/09/17 05:23:16;;;;;;;0.00;0.00;;;;;;;;;;5120403;27;20023;-65
2022/09/17 05:25:42;;;;;;;0.00;0.00;;;;;;;;;;5118817;27;20048;-67
2022/09/17 05:28:07;;;;;;;0.00;0.00;;;;;;;;;;5121761;27;20027;-67
2022/09/17 05:30:32;;;;;;;0.00;0.00;;;;;;;;;;5111586;28;20016;-67
2022/09/17 05:32:59;;;;;;;0.00;0.00;;;;;;;;;;5110495;27;20016;-66
2022/09/17 05:35:24;;;;;;;0.00;0.00;;;;;;;;;;5111213;28;20410;-62
2022/09/17 05:37:49;;;;;;;0.00;0.00;;;;;;;;;;5119119;27;20015;-64
2022/09/17 05:40:15;;;;;;;0.00;0.00;;;;;;;;;;5120377;27;20031;-62
2022/09/17 05:42:40;;;;;;;0.00;0.00;;;;;;;;;;5116860;27;20031;-63
2022/09/17 05:45:06;;;;;;;0.00;0.00;;;;;;;;;;5112361;27;20024;-63
2022/09/17 05:47:31;;;;;;;0.00;0.00;;;;;;;;;;5114589;27;20042;-64
2022/09/17 05:49:56;;;;;;;0.00;0.00;;;;;;;;;;5112814;27;20058;-64
2022/09/17 05:52:25;;;;;;;0.00;0.00;;;;;;;;;;5113457;27;20023;-64
2022/09/17 05:54:50;;;;;;;0.00;0.00;;;;;;;;;;5110357;27;20098;-64
2022/09/17 05:57:15;;;;;;;0.00;0.00;;;;;;;;;;5127437;27;20111;-63
2022/09/17 05:59:42;;;;;;;0.00;0.00;;;;;;;;;;5128690;27;20039;-64
2022/09/17 06:02:08;;;;;;;0.00;0.00;;;;;;;;;;5130322;27;20027;-64
2022/09/17 06:04:33;;;;;;;0.00;0.00;;;;;;;;;;5110888;27;20041;-64
2022/09/17 06:06:59;;;;;;;0.00;0.00;;;;;;;;;;5112428;27;20031;-64
2022/09/17 06:09:24;;;;;;;0.00;0.00;;;;;;;;;;5110988;27;20020;-63
2022/09/17 06:11:49;;;;;;;0.00;0.00;;;;;;;;;;5110589;28;20027;-64
2022/09/17 06:14:15;;;;;;;0.00;0.00;;;;;;;;;;5108810;28;20080;-65
2022/09/17 06:16:40;;;;;;;0.00;0.00;;;;;;;;;;5120553;27;20447;-63
2022/09/17 06:19:05;;;;;;;0.00;0.00;;;;;;;;;;5112679;27;20109;-64
2022/09/17 06:21:30;;;;;;;0.00;0.00;;;;;;;;;;5112090;27;20024;-63
2022/09/17 06:23:56;;;;;;;0.00;0.00;;;;;;;;;;5110112;28;20035;-64
2022/09/17 06:26:21;;;;;;;0.00;0.00;;;;;;;;;;5122918;27;20360;-64
2022/09/17 06:28:46;;;;;;;0.00;0.00;;;;;;;;;;5110941;27;20131;-63
2022/09/17 06:31:11;;;;;;;0.00;0.00;;;;;;;;;;5127100;27;20016;-64
2022/09/17 06:33:37;;;;;;;0.30;0.30;;;;;;;;;;5110564;28;20023;-64
2022/09/17 06:36:03;;;;;;;0.00;0.00;;;;;;;;;;5110105;27;20406;-64
2022/09/17 06:38:29;;;;;;;0.00;0.00;;;;;;;;;;5110799;27;20019;-64
2022/09/17 06:40:55;;;;;;;0.00;0.00;;;;;;;;;;5109458;28;20055;-63
2022/09/17 06:43:20;;;;;;;0.00;0.00;;;;;;;;;;5110298;27;20057;-61
2022/09/17 06:46:12;;;;;;;0.00;0.00;;;;;;;;;;5112453;27;20456;-63
2022/09/17 06:48:37;;;;;;;0.00;0.00;;;;;;;;;;5111303;27;20039;-62
2022/09/17 06:51:06;;;;;;;0.00;0.00;;;;;;;;;;5110810;27;20093;-63
2022/09/17 06:53:31;;;;;;;0.00;0.00;;;;;;;;;;5110299;27;20039;-63
2022/09/17 06:55:57;;;;;;;0.00;0.00;;;;;;;;;;5115657;27;20062;-63
2022/09/17 06:58:23;;;;;;;0.00;0.00;;;;;;;;;;5109687;28;20069;-63
2022/09/17 07:00:48;;;;;;;0.00;0.00;;;;;;;;;;5109308;28;20039;-63
2022/09/17 07:03:13;;;;;;;0.00;0.00;;;;;;;;;;5124425;27;20027;-63
2022/09/17 07:05:38;;;;;;;0.00;0.00;;;;;;;;;;5129210;27;20035;-63
2022/09/17 07:08:04;;;;;;;0.00;0.00;;;;;;;;;;5108788;28;20028;-62
2022/09/17 07:10:29;;;;;;;0.00;0.00;;;;;;;;;;5109847;28;20016;-63
2022/09/17 07:12:55;;;;;;;0.00;0.00;;;;;;;;;;5109652;27;20028;-63
2022/09/17 07:15:20;;;;;;;0.00;0.00;;;;;;;;;;5110531;27;20016;-64
2022/09/17 07:17:45;;;;;;;0.00;0.00;;;;;;;;;;5111440;27;20035;-63
2022/09/17 07:20:11;;;;;;;0.17;0.17;;;;;;;;;;5109279;27;20504;-63
2022/09/17 07:22:36;;;;;;;0.00;0.00;;;;;;;;;;5110141;27;20023;-63
2022/09/17 07:25:02;;;;;;;0.00;0.00;;;;;;;;;;5111133;27;20525;-63
2022/09/17 07:27:28;;;;;;;0.00;0.00;;;;;;;;;;5130017;27;20048;-63
2022/09/17 07:29:54;;;;;;;0.00;0.00;;;;;;;;;;5121100;27;20024;-63
2022/09/17 07:32:19;;;;;;;0.68;0.68;;;;;;;;;;5109201;27;20027;-63
2022/09/17 07:34:44;;;;;;;0.00;0.00;;;;;;;;;;5108558;28;20051;-63
2022/09/17 07:37:10;;;;;;;0.00;0.00;;;;;;;;;;5109444;28;20356;-63
2022/09/17 07:39:35;;;;;;;0.03;0.03;;;;;;;;;;5109525;28;20257;-61
2022/09/17 07:42:03;;;;;;;0.22;0.22;;;;;;;;;;5109770;27;20094;-60
2022/09/17 07:44:29;;;;;;;0.00;0.00;;;;;;;;;;5109036;28;20102;-61
2022/09/17 07:46:54;;;;;;;0.00;0.00;;;;;;;;;;5113033;27;20115;-60
2022/09/17 07:49:19;;;;;;;0.00;0.00;;;;;;;;;;5110503;27;20598;-60
2022/09/17 07:51:45;;;;;;;0.65;0.60;;;;;;;;;;5110742;27;20051;-60
2022/09/17 07:54:10;;;;;;;0.55;0.50;;;;;;;;;;5110649;28;20520;-60
2022/09/17 07:56:36;;;;;;;0.13;0.13;;;;;;;;;;5125590;27;20178;-61
2022/09/17 07:59:02;;;;;;;0.00;0.00;;;;;;;;;;5122758;27;20040;-60
2022/09/17 08:01:27;;;;;;;0.00;0.00;;;;;;;;;;5108547;28;20388;-61
2022/09/17 08:03:53;;;;;;;4.93;0.47;;;;;;;;;;5108259;28;20028;-61
2022/09/17 08:06:20;;;;;;;0.00;0.00;;;;;;;;;;5112613;28;20039;-60
2022/09/17 08:08:46;;;;;;;0.00;0.00;;;;;;;;;;5108246;28;20034;-59
2022/09/17 08:11:12;;;;;;;0.15;0.15;;;;;;;;;;5108584;28;20016;-60
2022/09/17 08:13:38;;;;;;;0.00;0.00;;;;;;;;;;5109256;27;20472;-60
2022/09/17 08:16:05;;;;;;;0.00;0.00;;;;;;;;;;5113133;28;20023;-60
2022/09/17 08:18:30;;;;;;;2.35;0.45;;;;;;;;;;5109646;28;20086;-59
2022/09/17 08:20:56;;;;;;;0.00;0.00;;;;;;;;;;5108047;28;20131;-60
2022/09/17 08:23:22;;;;;;;0.00;0.00;;;;;;;;;;5108874;28;20552;-59
2022/09/17 08:25:53;;;;;;;0.00;0.00;;;;;;;;;;5114521;28;20023;-59
2022/09/17 08:28:19;;;;;;;0.00;0.00;;;;;;;;;;5108498;28;20387;-59
2022/09/17 08:30:45;;;;;;;6.70;0.40;;;;;;;;;;5108320;28;20023;-59
2022/09/17 08:33:10;;;;;;;0.00;0.00;;;;;;;;;;5108415;28;20011;-59
2022/09/17 08:35:35;;;;;;;0.10;0.10;;;;;;;;;;5107964;28;20428;-59
2022/09/17 08:38:00;;;;;;;0.00;0.00;;;;;;;;;;5107911;28;20020;-60
2022/09/17 08:40:26;;;;;;;0.00;0.00;;;;;;;;;;5108595;28;20253;-59
2022/09/17 08:42:53;;;;;;;0.00;0.00;;;;;;;;;;5109902;27;20600;-59
2022/09/17 08:45:20;;;;;;;0.00;0.00;;;;;;;;;;5116745;27;20062;-59
2022/09/17 08:47:45;;;;;;;0.00;0.00;;;;;;;;;;5113341;27;20376;-59
2022/09/17 08:50:28;;;;;;;0.00;0.00;;;;;;;;;;5128404;27;20023;-59
2022/09/17 08:53:12;;;;;;;0.15;0.15;;;;;;;;;;5125228;27;20015;-59
2022/09/17 08:55:56;;;;;;;0.00;0.00;;;;;;;;;;5118934;27;20090;-60
2022/09/17 08:58:36;;;;;;;0.00;0.00;;;;;;;;;;5111926;27;20097;-60
2022/09/17 09:01:04;;;;;;;0.00;0.00;;;;;;;;;;5111662;28;20047;-60
2022/09/17 09:03:44;;;;;;;3.83;3.63;;;;;;;;;;5112301;28;20027;-60
2022/09/17 09:06:10;;;;;;;4.75;0.30;;;;;;;;;;5111539;27;20020;-60
2022/09/17 09:08:44;;;;;;;0.13;0.13;;;;;;;;;;5112009;27;20065;-59
2022/09/17 09:11:14;;;;;;;0.00;0.00;;;;;;;;;;5111790;27;20020;-59
2022/09/17 09:13:41;;;;;;;4.10;0.57;;;;;;;;;;5115716;27;20019;-59
2022/09/17 09:16:24;;;;;;;1.45;0.52;;;;;;;;;;5112857;27;20095;-60
2022/09/17 09:18:51;;;;;;;3.65;3.55;;;;;;;;;;5111234;28;20058;-60
2022/09/17 09:21:19;;;;;;;0.00;0.00;;;;;;;;;;5111825;27;20080;-60
2022/09/17 09:24:00;;;;;;;0.00;0.00;;;;;;;;;;5111863;28;20022;-59
2022/09/17 09:26:28;;;;;;;0.00;0.00;;;;;;;;;;5112730;27;20064;-59
2022/09/17 09:28:59;;;;;;;7.68;3.60;;;;;;;;;;5111378;27;20496;-59
2022/09/17 09:31:24;;;;;;;0.00;0.00;;;;;;;;;;5111789;28;20069;-60
2022/09/17 09:33:50;;;;;;;7.70;0.93;;;;;;;;;;5111012;27;20461;-59
2022/09/17 09:36:20;;;;;;;0.10;0.10;;;;;;;;;;5111434;27;20266;-59
2022/09/17 09:38:49;;;;;;;0.00;0.00;;;;;;;;;;5111618;28;20016;-59
2022/09/17 09:41:39;;;;;;;0.40;0.00;;;;;;;;;;5113008;27;20075;-59
2022/09/17 09:44:08;;;;;;;0.10;0.10;;;;;;;;;;5111894;27;20554;-59
2022/09/17 09:46:42;;;;;;;0.00;0.00;;;;;;;;;;5112411;27;20070;-59
2022/09/17 09:49:16;;;;;;;0.10;0.10;;;;;;;;;;5111318;27;20076;-59
2022/09/17 09:51:52;;;;;;;0.22;0.22;;;;;;;;;;5110840;28;20031;-59
2022/09/17 09:54:25;;;;;;;0.20;0.20;;;;;;;;;;5110809;28;20596;-60
2022/09/17 09:56:53;;;;;;;0.35;0.35;;;;;;;;;;5125071;27;20023;-59
2022/09/17 09:59:18;;;;;;;0.20;0.20;;;;;;;;;;5131485;27;20135;-59
2022/09/17 10:01:45;;;;;;;0.00;0.00;;;;;;;;;;5112713;27;20027;-58
2022/09/17 10:04:16;;;;;;;0.00;0.00;;;;;;;;;;5110455;28;20027;-59
2022/09/17 10:06:41;;;;;;;9.93;4.03;;;;;;;;;;5110959;28;20020;-59
2022/09/17 10:09:06;;;;;;;0.10;0.00;;;;;;;;;;5111118;27;20046;-59
2022/09/17 10:11:32;;;;;;;0.00;0.00;;;;;;;;;;5114271;27;21789;-59
2022/09/17 10:14:13;;;;;;;0.05;0.05;;;;;;;;;;5110324;28;20027;-60
2022/09/17 10:16:38;;;;;;;2.60;0.43;;;;;;;;;;5110923;28;20024;-60
2022/09/17 10:19:06;;;;;;;0.00;0.00;;;;;;;;;;5110108;28;20031;-59
2022/09/17 10:21:31;;;;;;;0.40;0.25;;;;;;;;;;5110512;28;20051;-59
2022/09/17 10:23:57;;;;;;;0.00;0.00;;;;;;;;;;5110032;28;20058;-59
2022/09/17 10:26:24;;;;;;;0.00;0.00;;;;;;;;;;5111165;27;20031;-59
2022/09/17 10:28:51;;;;;;;0.00;0.00;;;;;;;;;;5110465;28;20341;-59
2022/09/17 10:31:16;;;;;;;0.85;0.85;;;;;;;;;;5110314;28;20464;-59
2022/09/17 10:33:59;;;;;;;0.10;0.10;;;;;;;;;;5111165;27;20020;-59
2022/09/17 10:36:37;;;;;;;0.00;0.00;;;;;;;;;;5110332;28;20051;-59
2022/09/17 10:39:21;;;;;;;0.08;0.08;;;;;;;;;;5112032;27;20027;-59
2022/09/17 10:41:53;;;;;;;0.25;0.25;;;;;;;;;;5110120;28;20468;-59
2022/09/17 10:44:22;;;;;;;0.00;0.00;;;;;;;;;;5109857;28;20027;-59
2022/09/17 10:46:48;;;;;;;;;;;;;;;;;;5126328;27;20072;-59
2022/09/17 10:49:33;;;;;;;0.00;0.00;;;;;;;;;;5109880;28;19923;-59
2022/09/17 10:52:03;;;;;;;0.00;0.00;;;;;;;;;;5109273;28;20047;-58
2022/09/17 10:54:48;;;;;;;1.75;1.75;;;;;;;;;;5110079;28;20615;-59
2022/09/17 10:57:17;;;;;;;0.00;0.00;;;;;;;;;;5102015;27;20119;-59
2022/09/17 10:59:48;;;;;;;0.00;0.00;;;;;;;;;;5114583;27;20047;-59
2022/09/17 11:02:32;;;;;;;0.00;0.00;;;;;;;;;;5109078;28;20629;-58
2022/09/17 11:05:01;;;;;;;0.00;0.00;;;;;;;;;;5107872;28;20028;-58
2022/09/17 11:07:41;;;;;;;0.00;0.00;;;;;;;;;;5110568;27;20042;-58
2022/09/17 11:10:11;;;;;;;0.08;0.08;;;;;;;;;;5109080;28;20115;-59
2022/09/17 11:12:49;;;;;;;0.00;0.00;;;;;;;;;;5108106;28;20034;-59
2022/09/17 11:15:39;;;;;;;0.00;0.00;;;;;;;;;;5109571;28;20115;-59
2022/09/17 11:18:23;;;;;;;0.08;0.08;;;;;;;;;;5122040;27;20019;-60
2022/09/17 11:20:54;;;;;;;0.03;0.03;;;;;;;;;;5109529;28;20015;-59
2022/09/17 11:23:19;;;;;;;0.00;0.00;;;;;;;;;;5109333;27;20115;-59
2022/09/17 11:25:55;;;;;;;0.00;0.00;;;;;;;;;;5118108;27;20102;-58
2022/09/17 11:28:32;;;;;;;0.00;0.00;;;;;;;;;;5109555;28;20023;-59
2022/09/17 11:30:57;;;;;;;0.00;0.00;;;;;;;;;;5122011;27;20027;-60
2022/09/17 11:33:40;;;;;;;0.73;0.37;;;;;;;;;;5121482;27;20068;-59
2022/09/17 11:36:18;;;;;;;0.00;0.00;;;;;;;;;;5111179;28;20675;-57
2022/09/17 11:38:47;;;;;;;0.32;0.20;;;;;;;;;;5125080;27;20507;-58
2022/09/17 11:41:15;;;;;;;0.00;0.00;;;;;;;;;;5122698;27;20059;-58
2022/09/17 11:43:46;;;;;;;0.65;0.22;;;;;;;;;;5119556;27;20416;-59
2022/09/17 11:46:19;;;;;;;0.00;0.00;;;;;;;;;;5108549;28;20027;-58
2022/09/17 11:48:47;;;;;;;0.15;0.15;;;;;;;;;;5123159;27;20019;-58
2022/09/17 11:51:25;;;;;;;0.00;0.00;;;;;;;;;;5108757;28;20031;-58
2022/09/17 11:53:58;;;;;;;0.05;0.05;;;;;;;;;;5109146;28;20016;-59
2022/09/17 11:56:26;;;;;;;0.03;0.03;;;;;;;;;;5116851;27;20023;-60
2022/09/17 11:58:54;;;;;;;0.00;0.00;;;;;;;;;;5109278;28;20457;-59
2022/09/17 12:01:51;;;;;;;0.00;0.00;;;;;;;;;;5109407;28;20027;-59
2022/09/17 12:04:30;;;;;;;0.00;0.00;;;;;;;;;;5109064;28;20039;-59
2022/09/17 12:07:15;;;;;;;0.25;0.25;;;;;;;;;;5110255;28;20032;-59
2022/09/17 12:09:43;;;;;;;0.00;0.00;;;;;;;;;;5108797;28;20507;-58
2022/09/17 12:12:11;;;;;;;0.00;0.00;;;;;;;;;;5110441;28;20023;-58
2022/09/17 12:14:46;;;;;;;0.00;0.00;;;;;;;;;;5108259;28;20027;-58
2022/09/17 12:17:15;;;;;;;0.00;0.00;;;;;;;;;;5126616;27;20458;-58
2022/09/17 12:19:47;;;;;;;0.00;0.00;;;;;;;;;;5114828;27;20142;-57
2022/09/17 12:22:16;;;;;;;0.00;0.00;;;;;;;;;;5116762;27;20467;-58
2022/09/17 12:24:42;;;;;;;0.10;0.10;;;;;;;;;;5113074;28;20461;-58
2022/09/17 12:27:10;;;;;;;0.00;0.00;;;;;;;;;;5132747;27;20023;-59
2022/09/17 12:29:53;;;;;;;0.57;0.10;;;;;;;;;;5133133;27;20045;-58
2022/09/17 12:32:18;;;;;;;6.55;1.00;;;;;;;;;;5112569;27;20024;-59
2022/09/17 12:34:55;;;;;;;0.00;0.00;;;;;;;;;;5111904;27;20023;-59
2022/09/17 12:37:39;;;;;;;0.32;0.32;;;;;;;;;;5111089;27;20264;-58
2022/09/17 12:40:07;;;;;;;0.00;0.00;;;;;;;;;;5116275;27;20454;-58
2022/09/17 12:42:44;;;;;;;0.00;0.00;;;;;;;;;;5130623;27;20106;-59
2022/09/17 12:45:48;;;;;;;0.00;0.00;;;;;;;;;;5129575;27;20022;-59
2022/09/17 12:48:31;;;;;;;0.00;0.00;;;;;;;;;;5085556;28;20759;-59
2022/09/17 12:51:05;;;;;;;1.95;0.85;;;;;;;;;;5086674;28;20801;-60
2022/09/17 12:53:39;;;;;;;0.00;0.00;;;;;;;;;;5084065;28;20067;-61
2022/09/17 12:56:14;;;;;;;0.00;0.00;;;;;;;;;;5087022;28;20151;-60
2022/09/17 12:58:51;;;;;;;0.10;0.00;;;;;;;;;;5079476;28;20577;-60
2022/09/17 13:01:21;;;;;;;0.10;0.10;;;;;;;;;;5087512;28;20111;-59
2022/09/17 13:03:56;;;;;;;0.70;0.20;;;;;;;;;;5087099;28;20114;-60
2022/09/17 13:06:25;;;;;;;0.00;0.00;;;;;;;;;;5086920;28;20036;-60
2022/09/17 13:09:09;;;;;;;0.00;0.00;;;;;;;;;;5087631;28;20454;-60
2022/09/17 13:11:40;;;;;;;0.00;0.00;;;;;;;;;;5087928;28;20048;-60
2022/09/17 13:14:05;;;;;;;3.50;1.67;;;;;;;;;;5086966;28;20026;-60
2022/09/17 13:16:40;;;;;;;0.00;0.00;;;;;;;;;;5084322;28;20020;-61
2022/09/17 13:19:24;;;;;;;0.00;0.00;;;;;;;;;;5107124;27;20415;-61
2022/09/17 13:21:56;;;;;;;0.00;0.00;;;;;;;;;;5124369;27;20566;-61
2022/09/17 13:24:24;;;;;;;0.00;0.00;;;;;;;;;;5127639;27;20348;-61
2022/09/17 13:26:51;;;;;;;0.00;0.00;;;;;;;;;;5127907;27;20383;-60
2022/09/17 13:29:35;;;;;;;0.00;0.00;;;;;;;;;;5126812;27;20023;-61
2022/09/17 13:32:00;;;;;;;0.00;0.00;;;;;;;;;;5125063;27;20020;-61
2022/09/17 13:34:26;;;;;;;0.00;0.00;;;;;;;;;;5131237;27;20467;-61
2022/09/17 13:36:52;;;;;;;4.10;3.75;;;;;;;;;;5130709;27;20027;-61
2022/09/17 13:39:33;;;;;;;0.00;0.00;;;;;;;;;;5127943;27;20593;-61
2022/09/17 13:42:04;;;;;;;0.00;0.00;;;;;;;;;;5129397;27;20041;-62
2022/09/17 13:44:29;;;;;;;0.00;0.00;;;;;;;;;;5131210;27;20044;-60
2022/09/17 13:47:07;;;;;;;0.25;0.25;;;;;;;;;;5129471;27;20011;-63
2022/09/17 13:49:32;;;;;;;0.00;0.00;;;;;;;;;;5127294;27;20023;-59
2022/09/17 13:51:57;;;;;;;0.60;0.30;;;;;;;;;;5130359;27;20483;-59
2022/09/17 13:54:34;;;;;;;0.00;0.00;;;;;;;;;;5130691;27;20705;-58
2022/09/17 13:57:09;;;;;;;0.00;0.00;;;;;;;;;;5126106;27;20435;-59
2022/09/17 13:59:35;;;;;;;0.00;0.00;;;;;;;;;;5126882;27;20035;-59
2022/09/17 14:02:00;;;;;;;0.00;0.00;;;;;;;;;;5130539;27;20023;-59
2022/09/17 14:04:32;;;;;;;0.00;0.00;;;;;;;;;;5130807;27;20019;-60
2022/09/17 14:06:58;;;;;;;0.00;0.00;;;;;;;;;;5125594;27;20053;-60
2022/09/17 14:09:47;;;;;;;0.40;0.40;;;;;;;;;;5128371;27;20710;-60
2022/09/17 14:12:31;;;;;;;0.00;0.00;;;;;;;;;;5119245;27;20025;-60
2022/09/17 14:14:56;;;;;;;0.00;0.00;;;;;;;;;;5130313;27;20498;-60
2022/09/17 14:17:40;;;;;;;0.28;0.28;;;;;;;;;;5130304;27;20041;-60
2022/09/17 14:20:07;;;;;;;0.05;0.05;;;;;;;;;;5129783;27;20468;-60
2022/09/17 14:22:32;;;;;;;0.00;0.00;;;;;;;;;;5126853;27;20027;-60
2022/09/17 14:24:57;;;;;;;0.05;0.00;;;;;;;;;;5128993;27;20027;-60
2022/09/17 14:27:41;;;;;;;0.00;0.00;;;;;;;;;;5128276;27;20055;-59
2022/09/17 14:30:32;;;;;;;2.65;0.20;;;;;;;;;;5126006;27;20075;-58
2022/09/17 14:33:07;;;;;;;0.45;0.45;;;;;;;;;;5128007;27;20080;-60
2022/09/17 14:35:34;;;;;;;0.43;0.30;;;;;;;;;;5129873;27;20144;-58
2022/09/17 14:38:18;;;;;;;0.00;0.00;;;;;;;;;;5129651;27;20049;-60
2022/09/17 14:40:45;;;;;;;0.20;0.20;;;;;;;;;;5127625;27;20432;-57
2022/09/17 14:43:17;;;;;;;0.00;0.00;;;;;;;;;;5129343;27;20114;-57
2022/09/17 14:45:42;;;;;;;1.00;1.00;;;;;;;;;;5128521;27;20015;-53
2022/09/17 14:48:26;;;;;;;0.00;0.00;;;;;;;;;;5124830;27;20019;-55
2022/09/17 14:50:51;;;;;;;0.00;0.00;;;;;;;;;;5129097;27;20023;-58
2022/09/17 14:53:17;;;;;;;0.00;0.00;;;;;;;;;;5127359;27;20015;-58
2022/09/17 14:55:44;;;;;;;0.00;0.00;;;;;;;;;;5128090;27;20080;-57
2022/09/17 14:58:24;;;;;;;0.00;0.00;;;;;;;;;;5124183;27;20038;-57
